Aérodrome :
LOGIN :

S'inscrire | Disclaimer

   EN    FR    IT 

 










Légende :    VFR   VFR Marginal   IFR   IFR Intensif   IFR Très Intensif
Visi : 
Plafond : 
>= 8 km
>= 3000ft
5 à 8 km
1000 à 3000 ft
1500m à 5 km
500 à 1000 ft
800 à 1500m
200 à 500 ft
< 800m
< 200 ft
Symboles :   Orages  Brouillard  Fortes neiges  Fortes précipitations  Vent > 20 kt
SIGMETs :   Divers  Orages  Givrage  Turbulence  Onde Orograph.  Cendres Volcan.







- Altitude de l'aérodrome : 49 ft
- Code IATA : GLZ


EHGR - Gilze-Rijen Airbase

DERNIER METAR :
  • 222004Z AUTO 24003KT 5000 BR NCD 14/14 Q1010 WHT

METARs EXPIRÉS :
  • 222000Z AUTO 23003KT 4200 BR NCD 14/14 Q1010 GRN
  • 221955Z AUTO 22001KT 2900 BR NCD 15/14 Q1010 YLO
  • 221948Z AUTO VRB01KT 4100 BR NCD 14/13 Q1010 GRN
  • 221935Z AUTO 24002KT 4200 BR NCD 15/14 Q1010 GRN
  • 221925Z AUTO 11001KT 5000 BR NCD 15/14 Q1010 WHT
  • 221855Z AUTO 18002KT 9999 NCD 16/14 Q1009 BLU
  • 221825Z AUTO 27003KT 9999 FEW067 19/13 Q1009 BLU
  • 221755Z AUTO 29004KT 250V310 9999 NCD 20/16 Q1009 BLU
  • 221725Z AUTO 27005KT 9999 NCD 20/15 Q1009 BLU

Prévision TAF périmée.
Pas de NOTAMs connus pour ce terrain.



MET'MAP, la Météo Aéronautique d'un coup d'oeil ! - Copyright ORBIFLY Décembre 2007 - Disclaimer

ORBIFLY MET'MAP TEAM :

Programmation & Développement : Alexandra Zaïnal
Conception & Développement : Baudouin d'Aumeries
Co-Programmation & Développement : Marc-Olivier Méhu
Soutien technique & logistique : Manuel Goepfert

Contact : metmap@orbifly.com




SOURCES & CREDITS :

   NOAA